createdAt,value
2022-09-15T00:00:31.412Z,17.43
2022-09-15T00:02:58.213Z,17.43
2022-09-15T00:05:24.865Z,17.30
2022-09-15T00:07:51.788Z,17.29
2022-09-15T00:10:18.682Z,17.25
2022-09-15T00:12:45.384Z,17.17
2022-09-15T00:15:15.042Z,17.10
2022-09-15T00:17:42.964Z,17.14
2022-09-15T00:20:11.057Z,17.03
2022-09-15T00:22:37.725Z,16.89
2022-09-15T00:25:06.907Z,16.95
2022-09-15T00:27:34.499Z,16.86
2022-09-15T00:30:02.206Z,16.86
2022-09-15T00:32:31.074Z,16.90
2022-09-15T00:34:57.898Z,16.84
2022-09-15T00:37:25.106Z,16.82
2022-09-15T00:39:53.340Z,16.86
2022-09-15T00:42:22.340Z,16.86
2022-09-15T00:44:53.901Z,16.81
2022-09-15T00:47:27.246Z,16.95
2022-09-15T00:50:01.156Z,17.00
2022-09-15T00:52:57.242Z,16.99
2022-09-15T00:55:37.868Z,16.95
2022-09-15T00:58:08.834Z,16.97
2022-09-15T01:00:35.595Z,16.97
2022-09-15T01:03:03.879Z,17.04
2022-09-15T01:05:35.984Z,17.01
2022-09-15T01:08:08.185Z,17.01
2022-09-15T01:10:38.519Z,17.03
2022-09-15T01:13:11.800Z,17.14
2022-09-15T01:15:57.241Z,17.11
2022-09-15T01:18:36.471Z,17.06
2022-09-15T01:21:06.163Z,17.19
2022-09-15T01:23:46.037Z,17.18
2022-09-15T01:26:12.565Z,17.15
2022-09-15T01:29:21.663Z,17.27
2022-09-15T01:32:12.630Z,17.38
2022-09-15T01:34:45.012Z,17.35
2022-09-15T01:37:17.819Z,17.48
2022-09-15T01:39:48.121Z,17.56
2022-09-15T01:42:19.113Z,17.47
2022-09-15T01:44:52.339Z,17.54
2022-09-15T01:47:21.106Z,17.63
2022-09-15T01:49:53.027Z,17.60
2022-09-15T01:52:22.112Z,17.71
2022-09-15T01:55:05.100Z,17.57
2022-09-15T01:57:33.707Z,17.51
2022-09-15T02:00:00.764Z,17.52
2022-09-15T02:02:48.102Z,17.51
2022-09-15T02:05:30.152Z,17.40
2022-09-15T02:08:30.713Z,17.65
2022-09-15T02:11:30.684Z,17.71
2022-09-15T02:14:03.968Z,17.65
2022-09-15T02:16:35.444Z,17.55
2022-09-15T02:19:21.452Z,17.68
2022-09-15T02:21:53.398Z,17.68
2022-09-15T02:24:25.997Z,17.68
2022-09-15T02:26:56.199Z,17.56
2022-09-15T02:29:26.641Z,17.45
2022-09-15T02:31:56.574Z,17.57
2022-09-15T02:34:34.018Z,17.59
2022-09-15T02:37:01.747Z,17.47
2022-09-15T02:39:33.085Z,17.45
2022-09-15T02:42:02.325Z,17.36
2022-09-15T02:44:30.953Z,17.38
2022-09-15T02:47:02.346Z,17.43
2022-09-15T02:49:28.902Z,17.52
2022-09-15T02:51:55.616Z,17.36
2022-09-15T02:54:22.233Z,17.51
2022-09-15T02:56:49.186Z,17.50
2022-09-15T02:59:15.772Z,17.68
2022-09-15T03:01:42.403Z,17.58
2022-09-15T03:04:09.094Z,17.44
2022-09-15T03:06:36.417Z,17.42
2022-09-15T03:09:08.771Z,17.40
2022-09-15T03:11:36.863Z,17.48
2022-09-15T03:14:06.240Z,17.34
2022-09-15T03:16:35.696Z,17.55
2022-09-15T03:19:02.676Z,17.48
2022-09-15T03:21:29.956Z,17.43
2022-09-15T03:23:58.552Z,17.40
2022-09-15T03:26:25.685Z,17.33
2022-09-15T03:28:53.414Z,17.25
2022-09-15T03:31:20.474Z,17.23
2022-09-15T03:33:47.661Z,17.20
2022-09-15T03:36:14.820Z,17.23
2022-09-15T03:38:41.404Z,17.54
2022-09-15T03:41:11.935Z,17.40
2022-09-15T03:43:39.453Z,17.30
2022-09-15T03:46:08.114Z,17.29
2022-09-15T03:48:36.220Z,17.19
2022-09-15T03:51:05.661Z,17.13
2022-09-15T03:53:34.717Z,17.17
2022-09-15T03:56:19.383Z,17.17
2022-09-15T03:58:45.966Z,17.16
2022-09-15T04:01:13.015Z,17.11
2022-09-15T04:03:45.254Z,17.19
2022-09-15T04:06:15.511Z,17.13
2022-09-15T04:08:42.447Z,17.11
2022-09-15T04:11:11.019Z,17.13
2022-09-15T04:13:39.836Z,17.17
2022-09-15T04:16:09.502Z,17.23
2022-09-15T04:18:36.556Z,17.23
2022-09-15T04:21:07.886Z,17.30
2022-09-15T04:23:35.110Z,17.17
2022-09-15T04:26:06.505Z,17.17
2022-09-15T04:28:36.129Z,17.11
2022-09-15T04:31:11.978Z,17.35
2022-09-15T04:33:40.590Z,17.21
2022-09-15T04:36:13.194Z,17.13
2022-09-15T04:38:39.763Z,17.17
2022-09-15T04:41:06.757Z,17.30
2022-09-15T04:43:33.815Z,17.29
2022-09-15T04:46:00.939Z,17.14
2022-09-15T04:48:28.300Z,17.08
2022-09-15T04:50:54.926Z,17.17
2022-09-15T04:53:21.870Z,17.17
2022-09-15T04:55:48.779Z,17.25
2022-09-15T04:58:15.376Z,17.29
2022-09-15T05:00:43.880Z,17.23
2022-09-15T05:03:13.013Z,17.17
2022-09-15T05:05:41.290Z,17.17
2022-09-15T05:08:08.501Z,17.28
2022-09-15T05:10:35.491Z,17.26
2022-09-15T05:13:02.069Z,17.25
2022-09-15T05:15:28.997Z,17.22
2022-09-15T05:17:55.576Z,17.38
2022-09-15T05:20:22.726Z,17.27
2022-09-15T05:22:49.582Z,17.28
2022-09-15T05:25:16.603Z,17.25
2022-09-15T05:27:43.533Z,17.50
2022-09-15T05:30:35.938Z,17.49
2022-09-15T05:32:57.509Z,17.43
2022-09-15T05:35:24.132Z,17.30
2022-09-15T05:37:50.935Z,17.31
2022-09-15T05:40:21.797Z,17.31
2022-09-15T05:42:48.506Z,17.25
2022-09-15T05:45:15.199Z,17.25
2022-09-15T05:47:41.823Z,17.30
2022-09-15T05:50:08.877Z,17.57
2022-09-15T05:52:35.935Z,17.48
2022-09-15T05:55:02.525Z,17.36
2022-09-15T05:57:29.479Z,17.56
2022-09-15T05:59:56.095Z,17.47
2022-09-15T06:02:23.364Z,17.41
2022-09-15T06:04:50.022Z,17.65
2022-09-15T06:07:16.688Z,17.51
2022-09-15T06:09:44.229Z,17.52
2022-09-15T06:12:12.020Z,17.58
2022-09-15T06:14:38.575Z,17.46
2022-09-15T06:17:05.636Z,17.41
2022-09-15T06:19:33.421Z,17.50
2022-09-15T06:22:00.005Z,17.03
2022-09-15T06:24:26.967Z,16.83
2022-09-15T06:26:53.566Z,16.88
2022-09-15T06:29:20.146Z,17.03
2022-09-15T06:31:47.124Z,17.10
2022-09-15T06:34:13.683Z,16.95
2022-09-15T06:36:40.359Z,16.95
2022-09-15T06:39:08.112Z,16.86
2022-09-15T06:41:58.859Z,16.72
2022-09-15T06:44:21.997Z,16.42
2022-09-15T06:46:50.016Z,16.30
2022-09-15T06:49:16.914Z,16.18
2022-09-15T06:51:43.550Z,16.28
2022-09-15T06:54:10.195Z,16.51
2022-09-15T06:56:38.312Z,16.58
2022-09-15T06:59:05.302Z,16.56
2022-09-15T07:01:32.452Z,16.52
2022-09-15T07:04:01.152Z,16.66
2022-09-15T07:06:30.150Z,16.90
2022-09-15T07:08:58.197Z,17.11
2022-09-15T07:11:25.757Z,17.00
2022-09-15T07:13:52.772Z,17.16
2022-09-15T07:16:23.100Z,17.17
2022-09-15T07:18:49.867Z,17.49
2022-09-15T07:21:19.906Z,17.52
2022-09-15T07:23:47.093Z,17.79
2022-09-15T07:26:16.191Z,17.89
2022-09-15T07:28:49.856Z,17.87
2022-09-15T07:31:19.294Z,17.81
2022-09-15T07:33:49.015Z,17.82
2022-09-15T07:36:15.868Z,17.76
2022-09-15T07:38:46.691Z,17.90
2022-09-15T07:41:24.637Z,17.89
2022-09-15T07:43:56.444Z,18.12
2022-09-15T07:46:25.416Z,17.96
2022-09-15T07:48:56.229Z,18.05
2022-09-15T07:51:23.460Z,18.08
2022-09-15T07:53:51.337Z,18.19
2022-09-15T07:56:18.802Z,18.17
2022-09-15T07:58:49.518Z,18.34
2022-09-15T08:01:17.685Z,18.47
2022-09-15T08:03:46.568Z,18.43
2022-09-15T08:06:13.900Z,18.59
2022-09-15T08:08:41.477Z,18.50
2022-09-15T08:11:09.950Z,18.61
2022-09-15T08:13:36.918Z,18.72
2022-09-15T08:16:08.320Z,18.80
2022-09-15T08:18:35.933Z,19.03
2022-09-15T08:21:11.335Z,19.35
2022-09-15T08:23:38.372Z,19.43
2022-09-15T08:26:13.864Z,19.70
2022-09-15T08:28:43.349Z,19.94
2022-09-15T08:31:12.598Z,20.00
2022-09-15T08:33:44.572Z,19.90
2022-09-15T08:36:12.661Z,19.84
2022-09-15T08:38:40.802Z,19.88
2022-09-15T08:41:23.981Z,20.00
2022-09-15T08:44:03.031Z,20.08
2022-09-15T08:46:44.753Z,20.28
2022-09-15T08:49:35.399Z,19.85
2022-09-15T08:52:14.046Z,19.94
2022-09-15T08:54:40.724Z,19.68
2022-09-15T08:57:14.122Z,19.71
2022-09-15T08:59:40.765Z,19.56
2022-09-15T09:02:13.316Z,19.80
2022-09-15T09:04:57.065Z,19.90
2022-09-15T09:07:45.132Z,19.93
2022-09-15T09:10:14.533Z,19.99
2022-09-15T09:13:23.833Z,19.87
2022-09-15T09:16:14.030Z,20.02
2022-09-15T09:18:55.891Z,20.04
2022-09-15T09:21:27.666Z,20.04
2022-09-15T09:24:12.322Z,20.33
2022-09-15T09:26:39.921Z,20.44
2022-09-15T09:29:16.625Z,20.33
2022-09-15T09:31:45.927Z,20.23
2022-09-15T09:34:28.794Z,20.43
2022-09-15T09:36:58.923Z,20.37
2022-09-15T09:39:27.778Z,20.50
2022-09-15T09:41:55.158Z,20.61
2022-09-15T09:44:31.781Z,20.98
2022-09-15T09:47:00.097Z,21.01
2022-09-15T09:49:34.510Z,21.03
2022-09-15T09:52:03.604Z,21.03
2022-09-15T09:54:33.134Z,20.84
2022-09-15T09:57:31.879Z,20.74
2022-09-15T09:59:58.537Z,20.66
2022-09-15T10:02:28.763Z,20.62
2022-09-15T10:05:18.158Z,20.61
2022-09-15T10:07:45.243Z,20.37
2022-09-15T10:10:25.979Z,20.50
2022-09-15T10:12:56.481Z,20.28
2022-09-15T10:15:34.009Z,20.27
2022-09-15T10:18:02.086Z,20.18
2022-09-15T10:20:45.489Z,19.96
2022-09-15T10:23:18.240Z,19.89
2022-09-15T10:26:01.089Z,19.82
2022-09-15T10:28:27.911Z,19.86
2022-09-15T10:31:13.524Z,19.74
2022-09-15T10:33:50.420Z,19.80
2022-09-15T10:36:17.028Z,19.88
2022-09-15T10:38:49.244Z,19.83
2022-09-15T10:41:25.058Z,19.89
2022-09-15T10:44:09.836Z,20.11
2022-09-15T10:46:48.756Z,20.24
2022-09-15T10:49:46.209Z,20.48
2022-09-15T10:52:43.664Z,20.38
2022-09-15T10:55:37.014Z,20.26
2022-09-15T10:58:45.783Z,20.41
2022-09-15T11:01:30.606Z,20.24
2022-09-15T11:04:18.875Z,20.43
2022-09-15T11:07:06.299Z,20.35
2022-09-15T11:09:46.406Z,20.63
2022-09-15T11:12:38.524Z,20.67
2022-09-15T11:15:33.267Z,20.56
2022-09-15T11:18:12.350Z,20.70
2022-09-15T11:20:54.058Z,20.65
2022-09-15T11:23:26.473Z,20.66
2022-09-15T11:25:58.660Z,20.97
2022-09-15T11:28:52.891Z,20.83
2022-09-15T11:31:27.578Z,20.97
2022-09-15T11:34:06.973Z,20.51
2022-09-15T11:36:44.283Z,20.24
2022-09-15T11:39:19.436Z,20.21
2022-09-15T11:41:56.286Z,20.21
2022-09-15T11:44:51.192Z,20.17
2022-09-15T11:47:39.838Z,20.10
2022-09-15T11:50:16.942Z,19.87
2022-09-15T11:52:46.652Z,20.09
2022-09-15T11:55:23.201Z,19.87
2022-09-15T11:58:34.741Z,19.91
2022-09-15T12:01:11.269Z,19.96
2022-09-15T12:03:52.913Z,19.79
2022-09-15T12:06:22.642Z,19.44
2022-09-15T12:09:04.747Z,19.22
2022-09-15T12:11:36.543Z,19.09
2022-09-15T12:14:05.247Z,19.06
2022-09-15T12:16:33.943Z,19.06
2022-09-15T12:19:41.574Z,19.30
2022-09-15T12:22:26.361Z,19.42
2022-09-15T12:25:02.380Z,19.44
2022-09-15T12:27:29.830Z,19.67
2022-09-15T12:30:00.570Z,19.73
2022-09-15T12:32:27.662Z,19.70
2022-09-15T12:35:01.560Z,19.67
2022-09-15T12:37:47.411Z,19.81
2022-09-15T12:40:38.992Z,20.19
2022-09-15T12:43:12.565Z,20.20
2022-09-15T12:45:42.084Z,20.31
2022-09-15T12:48:19.020Z,20.33
2022-09-15T12:50:57.263Z,20.23
2022-09-15T12:53:28.904Z,20.10
2022-09-15T12:55:59.315Z,20.06
2022-09-15T12:58:36.900Z,19.82
2022-09-15T13:01:19.105Z,19.77
2022-09-15T13:03:46.549Z,19.73
2022-09-15T13:06:23.865Z,19.58
2022-09-15T13:09:15.099Z,19.46
2022-09-15T13:11:42.946Z,19.79
2022-09-15T13:14:43.023Z,20.41
2022-09-15T13:17:12.362Z,20.69
2022-09-15T13:19:41.618Z,20.62
2022-09-15T13:22:11.328Z,20.48
2022-09-15T13:25:01.805Z,20.29
2022-09-15T13:27:39.915Z,20.17
2022-09-15T13:30:10.002Z,20.29
2022-09-15T13:33:08.976Z,20.13
2022-09-15T13:36:06.129Z,20.06
2022-09-15T13:39:07.956Z,20.73
2022-09-15T13:41:46.729Z,21.16
2022-09-15T13:44:43.689Z,21.92
2022-09-15T13:47:29.103Z,23.35
2022-09-15T13:50:26.366Z,23.18
2022-09-15T13:54:03.598Z,23.49
2022-09-15T13:56:35.647Z,22.23
2022-09-15T13:59:11.288Z,21.13
2022-09-15T14:01:42.442Z,20.58
2022-09-15T14:04:19.191Z,20.53
2022-09-15T14:06:49.763Z,20.41
2022-09-15T14:09:25.027Z,20.22
2022-09-15T14:11:54.048Z,20.12
2022-09-15T14:14:41.572Z,20.17
2022-09-15T14:17:44.017Z,20.09
2022-09-15T14:20:23.863Z,19.96
2022-09-15T14:22:51.502Z,19.85
2022-09-15T14:25:19.417Z,19.91
2022-09-15T14:27:49.726Z,19.58
2022-09-15T14:30:27.523Z,19.51
2022-09-15T14:32:57.783Z,19.68
2022-09-15T14:35:27.158Z,19.76
2022-09-15T14:37:57.680Z,19.79
2022-09-15T14:40:28.956Z,19.79
2022-09-15T14:42:56.172Z,19.73
2022-09-15T14:45:53.777Z,19.69
2022-09-15T14:48:27.922Z,19.36
2022-09-15T14:51:01.687Z,18.92
2022-09-15T14:53:32.938Z,18.73
2022-09-15T14:56:08.334Z,18.62
2022-09-15T14:58:51.935Z,18.59
2022-09-15T15:01:40.630Z,18.86
2022-09-15T15:04:25.554Z,18.75
2022-09-15T15:07:15.192Z,18.62
2022-09-15T15:09:46.954Z,18.71
2022-09-15T15:12:22.881Z,18.32
2022-09-15T15:14:51.447Z,18.03
2022-09-15T15:17:30.423Z,18.12
2022-09-15T15:20:06.127Z,17.75
2022-09-15T15:22:32.716Z,17.50
2022-09-15T15:25:00.101Z,17.33
2022-09-15T15:27:32.495Z,16.95
2022-09-15T15:30:26.599Z,16.81
2022-09-15T15:32:54.167Z,16.76
2022-09-15T15:35:21.337Z,16.91
2022-09-15T15:37:48.357Z,16.89
2022-09-15T15:40:18.766Z,16.87
2022-09-15T15:43:07.773Z,16.84
2022-09-15T15:45:36.276Z,16.81
2022-09-15T15:48:03.982Z,16.78
2022-09-15T15:50:32.657Z,16.63
2022-09-15T15:53:00.857Z,16.60
2022-09-15T15:55:40.916Z,16.51
2022-09-15T15:58:10.330Z,16.56
2022-09-15T16:00:44.132Z,16.60
2022-09-15T16:03:14.481Z,16.72
2022-09-15T16:05:44.043Z,16.73
2022-09-15T16:08:23.749Z,16.66
2022-09-15T16:10:51.790Z,16.63
2022-09-15T16:13:20.304Z,16.48
2022-09-15T16:15:47.616Z,16.43
2022-09-15T16:18:15.137Z,16.43
2022-09-15T16:20:42.857Z,16.29
2022-09-15T16:23:17.772Z,16.21
2022-09-15T16:25:54.672Z,16.13
2022-09-15T16:28:21.677Z,16.07
2022-09-15T16:30:48.903Z,16.06
2022-09-15T16:33:17.504Z,15.97
2022-09-15T16:35:51.510Z,15.92
2022-09-15T16:38:20.089Z,15.66
2022-09-15T16:40:51.151Z,15.58
2022-09-15T16:43:22.906Z,15.55
2022-09-15T16:45:50.743Z,15.40
2022-09-15T16:48:17.834Z,15.42
2022-09-15T16:50:56.051Z,15.28
2022-09-15T16:53:33.449Z,15.13
2022-09-15T16:56:00.004Z,15.02
2022-09-15T16:58:26.687Z,15.08
2022-09-15T17:01:09.685Z,15.06
2022-09-15T17:03:43.319Z,15.02
2022-09-15T17:06:13.793Z,14.95
2022-09-15T17:08:40.819Z,14.95
2022-09-15T17:11:16.490Z,14.93
2022-09-15T17:13:44.074Z,14.85
2022-09-15T17:16:12.559Z,14.82
2022-09-15T17:18:39.208Z,14.85
2022-09-15T17:21:05.938Z,14.84
2022-09-15T17:23:38.548Z,14.79
2022-09-15T17:26:10.542Z,14.69
2022-09-15T17:28:37.490Z,14.65
2022-09-15T17:31:07.144Z,14.58
2022-09-15T17:33:33.791Z,14.56
2022-09-15T17:36:00.615Z,14.52
2022-09-15T17:38:27.502Z,14.53
2022-09-15T17:40:55.406Z,14.45
2022-09-15T17:43:25.554Z,14.45
2022-09-15T17:45:52.983Z,14.37
2022-09-15T17:48:20.243Z,14.28
2022-09-15T17:50:48.650Z,14.27
2022-09-15T17:53:21.432Z,14.29
2022-09-15T17:55:48.521Z,14.29
2022-09-15T17:58:15.376Z,14.27
2022-09-15T18:00:43.691Z,14.18
2022-09-15T18:03:27.878Z,14.15
2022-09-15T18:05:56.643Z,14.09
2022-09-15T18:08:23.425Z,14.00
2022-09-15T18:10:50.744Z,13.95
2022-09-15T18:13:20.251Z,13.90
2022-09-15T18:15:49.038Z,13.82
2022-09-15T18:18:21.573Z,13.84
2022-09-15T18:20:53.011Z,13.79
2022-09-15T18:23:23.884Z,13.82
2022-09-15T18:25:51.134Z,13.75
2022-09-15T18:28:18.694Z,13.73
2022-09-15T18:30:47.631Z,13.72
2022-09-15T18:33:22.467Z,13.62
2022-09-15T18:35:51.085Z,13.60
2022-09-15T18:38:18.712Z,13.55
2022-09-15T18:40:47.487Z,13.54
2022-09-15T18:43:14.069Z,13.55
2022-09-15T18:45:42.648Z,13.49
2022-09-15T18:48:12.630Z,13.49
2022-09-15T18:50:40.842Z,13.34
2022-09-15T18:53:08.300Z,13.35
2022-09-15T18:55:35.056Z,13.39
2022-09-15T18:58:01.814Z,13.41
2022-09-15T19:00:28.894Z,13.32
2022-09-15T19:03:00.366Z,13.33
2022-09-15T19:05:27.902Z,13.32
2022-09-15T19:07:55.298Z,13.14
2022-09-15T19:10:24.789Z,13.16
2022-09-15T19:12:51.324Z,13.19
2022-09-15T19:15:18.094Z,13.20
2022-09-15T19:17:47.640Z,13.19
2022-09-15T19:20:19.604Z,13.16
2022-09-15T19:22:46.366Z,13.20
2022-09-15T19:25:13.676Z,13.20
2022-09-15T19:27:41.211Z,13.24
2022-09-15T19:30:10.022Z,13.23
2022-09-15T19:32:37.722Z,13.21
2022-09-15T19:35:05.205Z,13.20
2022-09-15T19:37:31.759Z,13.16
2022-09-15T19:39:58.332Z,13.11
2022-09-15T19:42:25.061Z,13.07
2022-09-15T19:44:51.743Z,13.17
2022-09-15T19:47:18.496Z,13.22
2022-09-15T19:49:45.069Z,13.26
2022-09-15T19:52:12.801Z,13.30
2022-09-15T19:54:39.479Z,13.30
2022-09-15T19:57:06.046Z,13.32
2022-09-15T19:59:32.662Z,13.25
2022-09-15T20:02:00.623Z,13.22
2022-09-15T20:04:28.405Z,13.27
2022-09-15T20:06:55.233Z,13.19
2022-09-15T20:09:22.719Z,13.12
2022-09-15T20:11:49.307Z,13.11
2022-09-15T20:14:16.231Z,13.08
2022-09-15T20:16:43.000Z,13.12
2022-09-15T20:19:09.653Z,13.18
2022-09-15T20:21:50.005Z,13.24
2022-09-15T20:24:18.546Z,13.29
2022-09-15T20:26:45.187Z,13.26
2022-09-15T20:29:12.284Z,13.26
2022-09-15T20:31:39.999Z,13.29
2022-09-15T20:34:06.616Z,13.30
2022-09-15T20:36:36.434Z,13.32
2022-09-15T20:39:06.023Z,13.28
2022-09-15T20:41:32.687Z,13.28
2022-09-15T20:44:00.172Z,13.28
2022-09-15T20:46:29.087Z,13.19
2022-09-15T20:48:55.771Z,13.11
2022-09-15T20:51:25.588Z,13.11
2022-09-15T20:53:54.519Z,13.13
2022-09-15T20:56:25.322Z,13.08
2022-09-15T20:58:54.038Z,13.10
2022-09-15T21:01:29.399Z,13.05
2022-09-15T21:03:56.297Z,13.01
2022-09-15T21:06:25.731Z,13.04
2022-09-15T21:08:53.587Z,13.05
2022-09-15T21:11:21.112Z,13.02
2022-09-15T21:13:49.240Z,13.02
2022-09-15T21:16:20.456Z,13.04
2022-09-15T21:18:48.254Z,13.08
2022-09-15T21:21:30.035Z,13.08
2022-09-15T21:24:04.029Z,13.06
2022-09-15T21:26:59.915Z,13.03
2022-09-15T21:29:27.767Z,13.04
2022-09-15T21:31:58.513Z,12.99
2022-09-15T21:34:25.305Z,13.00
2022-09-15T21:36:53.489Z,13.02
2022-09-15T21:39:20.119Z,13.03
2022-09-15T21:41:46.786Z,13.03
2022-09-15T21:44:13.449Z,13.03
2022-09-15T21:46:40.018Z,13.02
2022-09-15T21:49:06.665Z,13.00
2022-09-15T21:51:33.428Z,13.05
2022-09-15T21:54:00.599Z,13.06
2022-09-15T21:56:30.521Z,12.99
2022-09-15T21:58:57.713Z,12.99
2022-09-15T22:01:25.765Z,12.97
2022-09-15T22:03:55.165Z,12.95
2022-09-15T22:06:27.637Z,13.02
2022-09-15T22:08:55.370Z,13.02
2022-09-15T22:11:23.208Z,12.94
2022-09-15T22:13:50.064Z,12.89
2022-09-15T22:16:19.749Z,12.82
2022-09-15T22:18:47.940Z,12.67
2022-09-15T22:21:22.278Z,12.57
2022-09-15T22:23:50.291Z,12.60
2022-09-15T22:26:23.064Z,12.58
2022-09-15T22:28:49.962Z,12.59
2022-09-15T22:31:18.693Z,12.59
2022-09-15T22:33:46.278Z,12.59
2022-09-15T22:36:16.644Z,12.61
2022-09-15T22:38:45.147Z,12.70
2022-09-15T22:41:14.431Z,12.67
2022-09-15T22:43:43.156Z,12.66
2022-09-15T22:46:11.023Z,12.67
2022-09-15T22:48:43.032Z,12.66
2022-09-15T22:51:10.766Z,12.65
2022-09-15T22:53:38.859Z,12.69
2022-09-15T22:56:23.236Z,12.70
2022-09-15T22:58:50.116Z,12.68
2022-09-15T23:01:19.430Z,12.72
2022-09-15T23:03:53.377Z,12.69
2022-09-15T23:06:21.268Z,12.76
2022-09-15T23:08:56.382Z,12.75
2022-09-15T23:11:25.942Z,12.73
2022-09-15T23:13:54.374Z,12.79
2022-09-15T23:16:23.225Z,12.76
2022-09-15T23:18:50.990Z,12.72
2022-09-15T23:21:18.517Z,12.68
2022-09-15T23:23:46.235Z,12.73
2022-09-15T23:26:19.515Z,12.72
2022-09-15T23:28:46.307Z,12.68
2022-09-15T23:31:13.643Z,12.83
2022-09-15T23:33:40.934Z,12.75
2022-09-15T23:36:13.153Z,12.72
2022-09-15T23:38:41.792Z,12.66
2022-09-15T23:41:10.881Z,12.69
2022-09-15T23:43:37.460Z,12.57
2022-09-15T23:46:04.306Z,12.58
2022-09-15T23:48:34.408Z,12.60
2022-09-15T23:51:01.610Z,12.58
2022-09-15T23:53:28.521Z,12.75
2022-09-15T23:55:55.277Z,12.82
2022-09-15T23:58:21.846Z,12.76
